createdAt,value
2022-11-24T00:01:28.249Z,32.15
2022-11-24T00:04:00.729Z,40.08
2022-11-24T00:06:29.088Z,27.65
2022-11-24T00:08:57.319Z,38.70
2022-11-24T00:11:26.815Z,29.75
2022-11-24T00:13:54.829Z,28.00
2022-11-24T00:16:25.933Z,29.60
2022-11-24T00:18:55.289Z,35.67
2022-11-24T00:21:23.228Z,36.30
2022-11-24T00:23:51.310Z,23.60
2022-11-24T00:26:23.409Z,32.85
2022-11-24T00:28:52.659Z,36.17
2022-11-24T00:31:21.248Z,33.45
2022-11-24T00:33:50.448Z,27.80
2022-11-24T00:36:19.100Z,26.98
2022-11-24T00:38:47.098Z,35.70
2022-11-24T00:41:14.508Z,25.55
2022-11-24T00:43:41.843Z,33.78
2022-11-24T00:46:09.243Z,28.33
2022-11-24T00:48:36.653Z,33.05
2022-11-24T00:51:06.760Z,32.97
2022-11-24T00:53:34.268Z,32.45
2022-11-24T00:56:04.136Z,29.58
2022-11-24T00:58:32.114Z,26.40
2022-11-24T01:01:13.598Z,29.92
2022-11-24T01:03:42.333Z,30.98
2022-11-24T01:06:15.564Z,32.03
2022-11-24T01:08:43.283Z,26.83
2022-11-24T01:11:19.142Z,34.67
2022-11-24T01:13:48.694Z,30.50
2022-11-24T01:16:19.471Z,23.75
2022-11-24T01:18:47.055Z,35.15
2022-11-24T01:21:15.374Z,28.00
2022-11-24T01:23:42.863Z,30.90
2022-11-24T01:26:12.494Z,27.90
2022-11-24T01:28:46.250Z,26.02
2022-11-24T01:31:14.403Z,32.75
2022-11-24T01:33:41.673Z,36.45
2022-11-24T01:36:08.986Z,30.02
2022-11-24T01:38:36.193Z,29.45
2022-11-24T01:41:05.453Z,36.78
2022-11-24T01:43:32.984Z,30.42
2022-11-24T01:46:13.370Z,30.05
2022-11-24T01:48:46.773Z,26.48
2022-11-24T01:51:20.974Z,26.67
2022-11-24T01:53:58.223Z,35.35
2022-11-24T01:56:26.756Z,24.83
2022-11-24T01:58:58.793Z,29.52
2022-11-24T02:01:26.357Z,26.23
2022-11-24T02:03:53.946Z,31.35
2022-11-24T02:06:27.593Z,29.33
2022-11-24T02:08:59.373Z,29.13
2022-11-24T02:11:30.752Z,30.50
2022-11-24T02:13:58.033Z,22.08
2022-11-24T02:16:25.579Z,28.63
2022-11-24T02:18:53.253Z,25.40
2022-11-24T02:21:20.536Z,31.45
2022-11-24T02:24:00.032Z,34.30
2022-11-24T02:26:47.092Z,33.40
2022-11-24T02:29:15.378Z,28.52
2022-11-24T02:31:48.181Z,30.88
2022-11-24T02:34:15.444Z,31.83
2022-11-24T02:36:42.653Z,37.72
2022-11-24T02:39:14.501Z,32.22
2022-11-24T02:41:49.934Z,31.38
2022-11-24T02:44:20.202Z,26.15
2022-11-24T02:46:47.452Z,34.65
2022-11-24T02:49:15.832Z,29.85
2022-11-24T02:51:42.973Z,34.78
2022-11-24T02:54:10.207Z,42.00
2022-11-24T02:56:37.373Z,29.23
2022-11-24T02:59:04.533Z,33.13
2022-11-24T03:01:31.723Z,33.58
2022-11-24T03:03:59.001Z,29.15
2022-11-24T03:06:26.124Z,41.70
2022-11-24T03:08:53.372Z,33.15
2022-11-24T03:11:20.603Z,26.40
2022-11-24T03:13:47.755Z,31.23
2022-11-24T03:16:15.027Z,31.73
2022-11-24T03:18:42.223Z,31.83
2022-11-24T03:21:09.395Z,29.75
2022-11-24T03:23:36.573Z,25.40
2022-11-24T03:26:10.414Z,34.15
2022-11-24T03:31:05.350Z,30.35
2022-11-24T03:33:32.735Z,31.38
2022-11-24T03:35:59.954Z,34.00
2022-11-24T03:38:27.615Z,33.75
2022-11-24T03:40:54.864Z,34.47
2022-11-24T03:43:22.126Z,33.45
2022-11-24T03:45:50.393Z,36.33
2022-11-24T03:48:21.345Z,36.30
2022-11-24T03:50:59.483Z,38.08
2022-11-24T03:53:29.013Z,33.15
2022-11-24T03:55:56.294Z,39.53
2022-11-24T03:58:24.284Z,40.85
2022-11-24T04:00:53.173Z,27.85
2022-11-24T04:03:20.815Z,33.10
2022-11-24T04:05:48.004Z,38.67
2022-11-24T04:08:15.823Z,35.20
2022-11-24T04:10:43.205Z,37.50
2022-11-24T04:13:15.815Z,27.48
2022-11-24T04:15:44.295Z,27.17
2022-11-24T04:18:13.433Z,35.60
2022-11-24T04:20:41.845Z,36.40
2022-11-24T04:23:10.005Z,34.75
2022-11-24T04:25:37.892Z,29.52
2022-11-24T04:28:05.424Z,29.63
2022-11-24T04:30:33.792Z,30.20
2022-11-24T04:33:01.049Z,28.65
2022-11-24T04:35:28.454Z,39.20
2022-11-24T04:37:55.784Z,42.88
2022-11-24T04:40:22.974Z,33.38
2022-11-24T04:42:55.198Z,33.08
2022-11-24T04:45:23.234Z,36.38
2022-11-24T04:47:50.441Z,40.72
2022-11-24T04:50:18.387Z,37.45
2022-11-24T04:52:45.664Z,31.83
2022-11-24T04:55:13.165Z,29.52
2022-11-24T04:57:40.443Z,26.90
2022-11-24T05:00:08.495Z,30.13
2022-11-24T05:02:35.764Z,37.50
2022-11-24T05:05:03.213Z,31.05
2022-11-24T05:07:30.459Z,34.00
2022-11-24T05:10:16.373Z,32.75
2022-11-24T05:12:48.401Z,37.58
2022-11-24T05:15:18.343Z,34.20
2022-11-24T05:17:45.484Z,27.52
2022-11-24T05:20:12.615Z,35.88
2022-11-24T05:22:39.783Z,36.15
2022-11-24T05:25:07.193Z,33.22
2022-11-24T05:27:34.347Z,30.75
2022-11-24T05:30:01.541Z,27.55
2022-11-24T05:32:28.695Z,33.63
2022-11-24T05:34:56.886Z,25.88
2022-11-24T05:37:25.762Z,33.63
2022-11-24T05:39:54.731Z,27.80
2022-11-24T05:42:46.096Z,28.70
2022-11-24T05:45:19.864Z,27.02
2022-11-24T05:47:47.966Z,35.70
2022-11-24T05:50:17.644Z,30.58
2022-11-24T05:52:45.184Z,39.42
2022-11-24T05:55:15.192Z,34.80
2022-11-24T05:57:43.134Z,22.35
2022-11-24T06:00:11.660Z,25.45
2022-11-24T06:02:42.094Z,35.65
2022-11-24T06:05:09.512Z,34.83
2022-11-24T06:07:36.876Z,29.17
2022-11-24T06:10:05.024Z,29.95
2022-11-24T06:12:32.271Z,27.55
2022-11-24T06:14:59.423Z,24.75
2022-11-24T06:17:26.677Z,34.17
2022-11-24T06:19:54.134Z,39.33
2022-11-24T06:22:21.473Z,25.85
2022-11-24T06:24:50.684Z,28.35
2022-11-24T06:27:18.375Z,30.27
2022-11-24T06:29:45.723Z,26.55
2022-11-24T06:32:12.956Z,28.50
2022-11-24T06:34:40.224Z,26.08
2022-11-24T06:37:07.514Z,29.15
2022-11-24T06:39:34.714Z,22.48
2022-11-24T06:42:02.217Z,29.55
2022-11-24T06:44:29.688Z,29.35
2022-11-24T06:46:57.017Z,31.50
2022-11-24T06:49:24.305Z,23.50
2022-11-24T06:51:51.733Z,31.05
2022-11-24T06:54:21.420Z,29.42
2022-11-24T06:56:48.886Z,31.08
2022-11-24T06:59:21.916Z,29.23
2022-11-24T07:01:49.393Z,24.75
2022-11-24T07:04:16.987Z,24.67
2022-11-24T07:06:44.725Z,20.83
2022-11-24T07:09:13.886Z,23.15
2022-11-24T07:11:41.680Z,23.42
2022-11-24T07:14:09.747Z,18.58
2022-11-24T07:16:38.013Z,24.15
2022-11-24T07:19:05.348Z,22.60
2022-11-24T07:21:32.786Z,26.40
2022-11-24T07:26:41.196Z,21.25
2022-11-24T07:29:08.536Z,28.58
2022-11-24T07:31:35.924Z,23.85
2022-11-24T07:34:03.507Z,28.25
2022-11-24T07:36:30.867Z,24.95
2022-11-24T07:38:58.487Z,25.10
2022-11-24T07:41:25.948Z,33.35
2022-11-24T07:43:53.307Z,29.92
2022-11-24T07:46:20.855Z,28.95
2022-11-24T07:48:48.256Z,29.25
2022-11-24T07:51:16.098Z,34.88
2022-11-24T07:53:43.508Z,27.48
2022-11-24T07:56:10.926Z,27.15
2022-11-24T07:58:38.817Z,26.58
2022-11-24T08:01:14.960Z,23.70
2022-11-24T08:03:43.864Z,28.00
2022-11-24T08:06:33.901Z,24.67
2022-11-24T08:09:00.072Z,19.27
2022-11-24T08:11:27.889Z,23.10
2022-11-24T08:13:55.223Z,22.55
2022-11-24T08:16:23.088Z,26.48
2022-11-24T08:18:55.526Z,22.83
2022-11-24T08:21:23.744Z,18.45
2022-11-24T08:23:57.467Z,21.20
2022-11-24T08:26:25.679Z,24.60
2022-11-24T08:28:59.715Z,21.08
2022-11-24T08:31:34.044Z,23.73
2022-11-24T08:34:04.049Z,23.50
2022-11-24T08:36:31.607Z,22.27
2022-11-24T08:39:00.743Z,26.67
2022-11-24T08:41:29.099Z,19.88
2022-11-24T08:43:56.457Z,28.13
2022-11-24T08:46:24.215Z,34.42
2022-11-24T08:48:53.907Z,23.15
2022-11-24T08:51:25.177Z,22.80
2022-11-24T08:54:01.087Z,36.35
2022-11-24T08:56:31.037Z,34.45
2022-11-24T08:58:59.605Z,23.77
2022-11-24T09:01:28.204Z,24.23
2022-11-24T09:03:56.024Z,26.23
2022-11-24T09:06:26.188Z,30.02
2022-11-24T09:08:56.796Z,30.30
2022-11-24T09:11:25.808Z,23.95
2022-11-24T09:13:54.545Z,24.05
2022-11-24T09:16:26.118Z,19.67
2022-11-24T09:19:02.297Z,25.90
2022-11-24T09:21:30.549Z,27.75
2022-11-24T09:23:57.927Z,30.65
2022-11-24T09:29:11.668Z,33.00
2022-11-24T09:31:39.680Z,36.08
2022-11-24T09:34:15.357Z,50.08
2022-11-24T09:36:43.269Z,32.40
2022-11-24T09:39:11.440Z,41.20
2022-11-24T09:41:43.275Z,38.97
2022-11-24T09:44:38.268Z,40.05
2022-11-24T09:47:33.604Z,38.03
2022-11-24T09:50:10.128Z,28.33
2022-11-24T09:52:39.825Z,25.48
2022-11-24T09:55:25.515Z,36.10
2022-11-24T09:58:03.505Z,28.10
2022-11-24T10:00:31.428Z,28.65
2022-11-24T10:02:58.987Z,34.65
2022-11-24T10:05:29.370Z,22.10
2022-11-24T10:08:19.407Z,26.17
2022-11-24T10:10:57.546Z,30.95
2022-11-24T10:13:54.379Z,34.08
2022-11-24T10:16:56.946Z,32.47
2022-11-24T10:19:52.637Z,23.27
2022-11-24T10:22:50.777Z,28.95
2022-11-24T10:25:55.986Z,26.33
2022-11-24T10:28:36.496Z,25.67
2022-11-24T10:31:25.349Z,29.70
2022-11-24T10:33:52.759Z,29.58
2022-11-24T10:36:43.906Z,31.65
2022-11-24T10:39:21.546Z,27.05
2022-11-24T10:42:10.369Z,30.33
2022-11-24T10:44:38.046Z,30.35
2022-11-24T10:47:20.309Z,34.97
2022-11-24T10:49:58.366Z,25.40
2022-11-24T10:52:28.817Z,26.67
2022-11-24T10:55:04.347Z,26.88
2022-11-24T10:57:36.981Z,29.88
2022-11-24T11:00:19.378Z,22.00
2022-11-24T11:02:51.468Z,23.00
2022-11-24T11:05:33.827Z,26.73
2022-11-24T11:08:17.046Z,30.63
2022-11-24T11:10:45.057Z,21.87
2022-11-24T11:13:30.128Z,31.55
2022-11-24T11:15:58.803Z,27.92
2022-11-24T11:18:54.587Z,28.08
2022-11-24T11:21:38.753Z,30.70
2022-11-24T11:24:15.567Z,30.95
2022-11-24T11:26:43.961Z,36.25
2022-11-24T11:35:12.890Z,31.10
2022-11-24T11:37:40.796Z,29.27
2022-11-24T11:40:32.988Z,30.75
2022-11-24T11:43:31.820Z,22.88
2022-11-24T11:46:08.566Z,25.23
2022-11-24T11:48:43.560Z,33.53
2022-11-24T11:51:37.563Z,30.42
2022-11-24T11:54:36.095Z,27.90
2022-11-24T11:57:17.422Z,26.15
2022-11-24T12:00:00.539Z,25.42
2022-11-24T12:02:58.689Z,25.52
2022-11-24T12:05:26.258Z,32.45
2022-11-24T12:08:10.292Z,26.35
2022-11-24T12:11:10.358Z,24.38
2022-11-24T12:13:59.949Z,25.38
2022-11-24T12:16:46.015Z,26.73
2022-11-24T12:19:22.716Z,27.92
2022-11-24T12:22:19.717Z,27.92
2022-11-24T12:25:02.084Z,29.60
2022-11-24T12:27:40.447Z,30.50
2022-11-24T12:30:16.989Z,35.63
2022-11-24T12:33:02.789Z,32.10
2022-11-24T12:35:49.106Z,28.20
2022-11-24T12:38:33.927Z,22.30
2022-11-24T12:41:40.387Z,31.02
2022-11-24T12:44:11.118Z,28.52
2022-11-24T12:46:56.936Z,31.58
2022-11-24T12:49:47.371Z,26.38
2022-11-24T12:52:28.741Z,28.88
2022-11-24T12:54:57.059Z,21.70
2022-11-24T12:57:56.298Z,21.70
2022-11-24T13:00:32.008Z,27.58
2022-11-24T13:03:20.821Z,28.08
2022-11-24T13:06:01.407Z,30.20
2022-11-24T13:08:30.147Z,26.67
2022-11-24T13:11:23.305Z,28.83
2022-11-24T13:14:31.369Z,30.02
2022-11-24T13:17:31.644Z,25.85
2022-11-24T13:20:18.909Z,28.85
2022-11-24T13:22:57.685Z,27.58
2022-11-24T13:25:26.528Z,24.10
2022-11-24T13:27:59.859Z,23.45
2022-11-24T13:30:36.527Z,27.10
2022-11-24T13:33:16.468Z,26.05
2022-11-24T13:36:04.639Z,34.92
2022-11-24T13:38:44.487Z,20.60
2022-11-24T13:41:31.961Z,28.88
2022-11-24T13:44:17.046Z,21.63
2022-11-24T13:47:07.337Z,19.15
2022-11-24T13:49:39.230Z,25.90
2022-11-24T13:52:38.037Z,25.90
2022-11-24T13:55:22.068Z,23.60
2022-11-24T14:00:27.427Z,22.65
2022-11-24T14:03:38.097Z,25.02
2022-11-24T14:06:06.097Z,22.98
2022-11-24T14:08:36.747Z,22.73
2022-11-24T14:11:15.688Z,25.23
2022-11-24T14:13:43.087Z,24.73
2022-11-24T14:16:10.420Z,27.45
2022-11-24T14:18:43.041Z,27.52
2022-11-24T14:21:25.829Z,21.70
2022-11-24T14:24:00.298Z,24.77
2022-11-24T14:26:39.877Z,25.15
2022-11-24T14:29:22.341Z,21.23
2022-11-24T14:32:16.348Z,23.63
2022-11-24T14:34:43.844Z,18.65
2022-11-24T14:37:11.180Z,20.63
2022-11-24T14:39:42.796Z,18.25
2022-11-24T14:42:25.241Z,21.45
2022-11-24T14:44:56.791Z,18.52
2022-11-24T14:47:36.581Z,26.48
2022-11-24T14:50:19.845Z,17.40
2022-11-24T14:52:56.938Z,25.87
2022-11-24T14:55:31.620Z,27.08
2022-11-24T14:58:00.248Z,32.35
2022-11-24T15:00:33.055Z,21.58
2022-11-24T15:03:02.368Z,23.47
2022-11-24T15:05:55.915Z,24.90
2022-11-24T15:08:25.680Z,22.02
2022-11-24T15:11:01.427Z,25.25
2022-11-24T15:13:33.938Z,19.88
2022-11-24T15:16:26.483Z,21.02
2022-11-24T15:19:02.008Z,26.92
2022-11-24T15:21:34.247Z,21.77
2022-11-24T15:24:07.418Z,19.45
2022-11-24T15:26:41.481Z,26.85
2022-11-24T15:29:10.148Z,27.13
2022-11-24T15:31:38.195Z,26.77
2022-11-24T15:34:05.687Z,27.38
2022-11-24T15:36:33.497Z,29.85
2022-11-24T15:39:00.819Z,33.47
2022-11-24T15:41:32.998Z,29.73
2022-11-24T15:44:00.511Z,32.22
2022-11-24T15:46:29.271Z,28.98
2022-11-24T15:48:57.385Z,22.20
2022-11-24T15:51:26.667Z,24.45
2022-11-24T15:54:00.654Z,27.48
2022-11-24T15:56:36.657Z,27.23
2022-11-24T15:59:04.812Z,25.08
2022-11-24T16:01:34.028Z,26.98
2022-11-24T16:04:02.349Z,27.77
2022-11-24T16:06:29.977Z,27.35
2022-11-24T16:08:58.350Z,27.95
2022-11-24T16:11:25.920Z,26.58
2022-11-24T16:13:54.336Z,21.90
2022-11-24T16:16:23.630Z,26.85
2022-11-24T16:18:51.271Z,23.95
2022-11-24T16:21:18.709Z,23.00
2022-11-24T16:23:46.737Z,25.15
2022-11-24T16:26:14.078Z,26.80
2022-11-24T16:28:42.248Z,22.35
2022-11-24T16:31:09.671Z,26.23
2022-11-24T16:33:40.880Z,29.83
2022-11-24T16:36:09.049Z,24.92
2022-11-24T16:38:36.409Z,31.38
2022-11-24T16:41:03.908Z,28.70
2022-11-24T16:43:31.241Z,24.73
2022-11-24T16:46:19.094Z,27.65
2022-11-24T16:48:48.067Z,25.23
2022-11-24T16:51:16.581Z,21.83
2022-11-24T16:53:44.703Z,20.52
2022-11-24T16:56:12.439Z,18.95
2022-11-24T16:58:41.352Z,22.75
2022-11-24T17:01:13.338Z,19.23
2022-11-24T17:03:41.635Z,24.25
2022-11-24T17:06:11.589Z,28.67
2022-11-24T17:08:41.353Z,21.98
2022-11-24T17:11:19.610Z,26.52
2022-11-24T17:13:47.629Z,20.33
2022-11-24T17:16:20.257Z,21.40
2022-11-24T17:18:48.476Z,22.92
2022-11-24T17:21:33.625Z,21.20
2022-11-24T17:24:05.535Z,21.35
2022-11-24T17:26:33.426Z,16.73
2022-11-24T17:29:00.596Z,23.52
2022-11-24T17:31:33.203Z,20.25
2022-11-24T17:34:01.523Z,26.05
2022-11-24T17:36:31.213Z,22.27
2022-11-24T17:39:04.619Z,20.88
2022-11-24T17:41:32.285Z,22.00
2022-11-24T17:43:59.474Z,19.10
2022-11-24T17:46:28.620Z,17.45
2022-11-24T17:48:55.933Z,22.75
2022-11-24T17:51:25.586Z,19.60
2022-11-24T17:53:54.326Z,15.10
2022-11-24T17:56:24.506Z,20.42
2022-11-24T17:58:56.493Z,19.25
2022-11-24T18:01:24.434Z,22.85
2022-11-24T18:03:53.635Z,18.95
2022-11-24T18:06:24.233Z,15.88
2022-11-24T18:08:52.813Z,16.48
2022-11-24T18:11:31.475Z,22.02
2022-11-24T18:14:03.194Z,15.10
2022-11-24T18:16:32.593Z,18.83
2022-11-24T18:19:10.475Z,19.58
2022-11-24T18:21:40.319Z,21.65
2022-11-24T18:24:08.814Z,22.88
2022-11-24T18:26:36.079Z,24.35
2022-11-24T18:29:03.873Z,16.88
2022-11-24T18:31:32.440Z,20.58
2022-11-24T18:34:00.003Z,19.77
2022-11-24T18:36:30.556Z,20.70
2022-11-24T18:39:03.835Z,19.38
2022-11-24T18:41:31.992Z,18.10
2022-11-24T18:44:02.558Z,17.20
2022-11-24T18:46:29.797Z,18.80
2022-11-24T18:48:57.114Z,13.65
2022-11-24T18:51:24.346Z,17.25
2022-11-24T18:54:04.145Z,20.27
2022-11-24T18:56:31.693Z,20.20
2022-11-24T18:58:58.853Z,20.38
2022-11-24T19:01:28.552Z,17.25
2022-11-24T19:03:57.774Z,15.65
2022-11-24T19:06:32.861Z,15.80
2022-11-24T19:09:03.031Z,17.83
2022-11-24T19:11:41.884Z,15.18
2022-11-24T19:14:12.900Z,20.15
2022-11-24T19:16:41.018Z,21.35
2022-11-24T19:19:08.958Z,17.85
2022-11-24T19:21:39.975Z,19.55
2022-11-24T19:24:10.323Z,21.00
2022-11-24T19:26:38.605Z,18.70
2022-11-24T19:29:07.444Z,19.90
2022-11-24T19:31:35.594Z,20.33
2022-11-24T19:34:03.666Z,18.17
2022-11-24T19:36:31.093Z,17.05
2022-11-24T19:38:59.015Z,17.65
2022-11-24T19:41:30.298Z,23.80
2022-11-24T19:43:58.871Z,25.13
2022-11-24T19:46:29.510Z,14.70
2022-11-24T19:48:59.803Z,21.08
2022-11-24T19:51:33.425Z,19.77
2022-11-24T19:54:00.855Z,18.75
2022-11-24T19:56:30.373Z,25.60
2022-11-24T19:58:57.824Z,30.70
2022-11-24T20:01:30.081Z,28.00
2022-11-24T20:03:59.543Z,37.05
2022-11-24T20:06:38.227Z,28.60
2022-11-24T20:09:08.363Z,28.17
2022-11-24T20:11:35.903Z,23.70
2022-11-24T20:14:03.814Z,29.00
2022-11-24T20:16:32.839Z,15.18
2022-11-24T20:19:08.632Z,23.83
2022-11-24T20:21:38.403Z,16.98
2022-11-24T20:24:10.257Z,18.23
2022-11-24T20:26:40.123Z,21.10
2022-11-24T20:29:09.911Z,20.85
2022-11-24T20:31:39.514Z,16.95
2022-11-24T20:34:08.424Z,16.55
2022-11-24T20:36:38.347Z,20.73
2022-11-24T20:39:15.154Z,19.48
2022-11-24T20:41:42.354Z,16.55
2022-11-24T20:44:17.725Z,19.67
2022-11-24T20:46:46.154Z,19.95
2022-11-24T20:49:19.415Z,15.43
2022-11-24T20:51:49.683Z,19.65
2022-11-24T20:54:18.382Z,21.48
2022-11-24T20:56:46.729Z,19.48
2022-11-24T20:59:21.476Z,16.60
2022-11-24T21:01:50.178Z,19.02
2022-11-24T21:04:20.734Z,20.23
2022-11-24T21:06:48.133Z,23.60
2022-11-24T21:09:15.484Z,16.98
2022-11-24T21:11:43.015Z,21.85
2022-11-24T21:14:10.954Z,21.98
2022-11-24T21:16:40.458Z,20.73
2022-11-24T21:19:11.825Z,26.85
2022-11-24T21:21:40.233Z,19.65
2022-11-24T21:24:14.503Z,19.05
2022-11-24T21:26:42.611Z,22.48
2022-11-24T21:29:13.250Z,20.05
2022-11-24T21:31:41.106Z,19.45
2022-11-24T21:34:08.713Z,21.75
2022-11-24T21:36:37.994Z,17.60
2022-11-24T21:39:05.162Z,25.15
2022-11-24T21:41:33.756Z,22.35
2022-11-24T21:44:01.249Z,17.23
2022-11-24T21:46:38.951Z,21.48
2022-11-24T21:49:08.163Z,21.73
2022-11-24T21:51:35.378Z,18.40
2022-11-24T21:54:02.704Z,19.33
2022-11-24T21:56:29.865Z,25.25
2022-11-24T21:58:58.073Z,20.52
2022-11-24T22:01:28.244Z,23.17
2022-11-24T22:03:56.225Z,23.63
2022-11-24T22:06:23.895Z,23.38
2022-11-24T22:08:51.202Z,23.00
2022-11-24T22:11:25.523Z,33.97
2022-11-24T22:13:53.049Z,21.75
2022-11-24T22:16:23.097Z,18.33
2022-11-24T22:18:51.400Z,24.90
2022-11-24T22:21:23.964Z,21.35
2022-11-24T22:23:54.924Z,22.02
2022-11-24T22:26:24.093Z,23.25
2022-11-24T22:28:51.983Z,21.42
2022-11-24T22:31:28.436Z,28.95
2022-11-24T22:33:57.474Z,20.10
2022-11-24T22:36:26.803Z,20.10
2022-11-24T22:38:55.914Z,24.92
2022-11-24T22:41:24.004Z,17.35
2022-11-24T22:43:51.436Z,21.77
2022-11-24T22:46:24.085Z,19.67
2022-11-24T22:48:55.374Z,24.02
2022-11-24T22:51:26.385Z,23.60
2022-11-24T22:53:58.984Z,27.70
2022-11-24T22:56:28.057Z,20.85
2022-11-24T22:58:55.543Z,23.60
2022-11-24T23:01:25.105Z,21.23
2022-11-24T23:03:56.734Z,21.17
2022-11-24T23:06:26.929Z,22.70
2022-11-24T23:08:54.818Z,18.27
2022-11-24T23:11:30.686Z,26.25
2022-11-24T23:14:03.198Z,26.83
2022-11-24T23:16:30.675Z,23.50
2022-11-24T23:18:58.497Z,20.55
2022-11-24T23:21:26.927Z,17.95
2022-11-24T23:23:54.576Z,24.50
2022-11-24T23:26:24.675Z,21.95
2022-11-24T23:28:52.464Z,25.27
2022-11-24T23:31:24.307Z,21.98
2022-11-24T23:33:51.681Z,28.38
2022-11-24T23:36:20.356Z,24.08
2022-11-24T23:38:48.565Z,19.35
2022-11-24T23:41:18.514Z,21.83
2022-11-24T23:43:45.947Z,23.58
2022-11-24T23:46:15.606Z,18.40
2022-11-24T23:48:43.393Z,19.13
2022-11-24T23:51:22.370Z,26.70
2022-11-24T23:53:50.366Z,24.33
2022-11-24T23:56:20.137Z,23.15
2022-11-24T23:58:47.606Z,23.52
